Terminal Aerodrome Forecast
Issued by NWS Atlanta, GA

Home | Current Version | Previous Version | Text Only | Print | Product List | Glossary On
Versions: 1 2 3 4 5 6 7 8 9 10 11 12 13 14
000
FTUS42 KFFC 251700
TAFCSG
TAF
KCSG 251734Z 2518/2618 26007KT P6SM BKN040
      TEMPO 2519/2523 5SM -TSRA BKN035CB
     FM260000 23003KT P6SM SCT050
     FM260900 00000KT 5SM BR FEW060
     FM261400 26005KT P6SM FEW050=

USA.gov is the U.S. government's official web portal to all federal, state and local government web resources and services.